• Join FlightAware (Why Join?)
  • Login
  • US Flag 
08:16AM EDT


 

Airport Tracker/Info


-or-


 

Live Flight TrackerFlight Track Log ✈ UAL6148 ✈ 21-Apr-2013 ✈ KLNK - KDEN

Flight Track Log - Related Links

Times and Time Zones

All times are in EDT time to prevent confusion due to time zone crossing. See the UAL6148 flight status page for this flight to view local times or setup timezone preferences in your user account.

Time Position Orientation Groundspeed Altitude Reporting Facility
EDT Latitude Longitude Course Direction KTS MPH feet Rate Location/Type
08:31PM 40.7900 -96.7811 216° Southwest 184 212 3,600  Level Minneapolis Center
08:32PM 40.7644 -96.8256 233° Southwest 188 216 6,000 2,640 Climbing Minneapolis Center
08:33PM 40.7081 -96.8753 214° Southwest 229 264 8,900 2,700 Climbing Minneapolis Center
08:34PM 40.6308 -96.9381 212° Southwest 264 304 11,600 2,580 Climbing Minneapolis Center
08:35PM 40.5756 -97.0144 226° Southwest 291 335 14,200 2,580 Climbing Minneapolis Center
08:36PM 40.5542 -97.1106 254° West 286 329 16,900 2,520 Climbing Minneapolis Center
08:37PM 40.5639 -97.2153 277° West 287 330 19,400 2,280 Climbing Minneapolis Center
08:38PM 40.5711 -97.3189 275° West 285 328 21,600 1,860 Climbing Minneapolis Center
08:39PM 40.5789 -97.4200 276° West 293 337 23,700 1,860 Climbing Minneapolis Center
08:40PM 40.5917 -97.5764 276° West 305 351 25,800 1,800 Climbing Minneapolis Center
08:41PM 40.6008 -97.6931 276° West 317 365 27,500 1,500 Climbing Minneapolis Center
08:42PM 40.6094 -97.8117 276° West 323 372 29,000 1,200 Climbing Minneapolis Center
08:43PM 40.6181 -97.9353 275° West 333 383 30,000 960 Climbing Minneapolis Center
08:44PM 40.6281 -98.0642 276° West 347 399 31,000 960 Climbing Minneapolis Center
08:45PM 40.6369 -98.1981 275° West 360 414 32,000 960 Climbing Minneapolis Center
08:46PM 40.6472 -98.3342 276° West 369 425 33,000 960 Climbing Minneapolis Center
08:47PM 40.6561 -98.4714 275° West 373 429 34,000 960 Climbing Minneapolis Center
08:48PM 40.6653 -98.6094 275° West 376 433 35,000 900 Climbing Minneapolis Center
08:49PM 40.6753 -98.7469 276° West 375 432 35,900 480 Climbing Minneapolis Center
08:50PM 40.6861 -98.9117 275° West 374 430 36,000  Climbing Minneapolis Center
08:51PM 40.6950 -99.0486 275° West 373 429 36,000  Level Minneapolis Center
08:52PM 40.7000 -99.1319 275° West 375 432 36,000  Level Denver Center
08:53PM 40.7089 -99.2694 275° West 376 433 36,000  Level Denver Center
08:54PM 40.7167 -99.4028 274° West 367 422 36,000  Level Denver Center
08:55PM 40.7242 -99.5328 274° West 357 411 36,000  Level Denver Center
08:56PM 40.7319 -99.6639 275° West 358 412 36,000  Level Denver Center
08:57PM 40.7394 -99.7978 274° West 364 419 36,000  Level Denver Center
08:58PM 40.7481 -99.9478 274° West 367 422 36,000  Level Denver Center
08:59PM 40.7550 -100.0778 274° West 370 426 36,000  Level Denver Center
09:00PM 40.7636 -100.2303 274° West 374 430 36,000  Level Denver Center
09:01PM 40.7706 -100.3622 274° West 376 433 36,000  Level Denver Center
09:02PM 40.7786 -100.5150 274° West 376 433 36,000  Level Denver Center
09:03PM 40.7847 -100.6489 273° West 378 435 36,000  Level Denver Center
09:04PM 40.7656 -100.7844 259° West 380 437 36,000  Level Denver Center
09:05PM 40.7406 -100.9358 258° West 374 430 36,000  Level Denver Center
09:06PM 40.7197 -101.0636 258° West 372 428 36,000  Level Denver Center
09:07PM 40.6975 -101.1900 257° West 369 425 36,000  Level Denver Center
09:09PM 40.6717 -101.3383 257° West 372 428 36,000  Level Denver Center
09:10PM 40.6500 -101.4661 257° West 373 429 36,000  Level Denver Center
09:11PM 40.6236 -101.6125 257° West 369 425 36,000  Level Denver Center
09:12PM 40.6011 -101.7381 257° West 366 421 36,000  Level Denver Center
09:13PM 40.5750 -101.8836 257° West 365 420 36,000  Level Denver Center
09:14PM 40.5511 -102.0061 256° West 363 418 36,000  Level Denver Center
09:15PM 40.5242 -102.1522 256° West 369 425 36,000  Level Denver Center
09:16PM 40.5006 -102.2767 256° West 368 423 36,000 -300 Level Denver Center
09:17PM 40.4772 -102.4031 256° West 371 427 35,400 -960 Descending Denver Center
09:18PM 40.4500 -102.5489 256° West 368 423 34,100 -720 Descending Denver Center
09:19PM 40.4275 -102.6742 257° West 353 406 34,000 -60 Descending Denver Center
09:20PM 40.4047 -102.7961 256° West 343 395 34,000 -420 Level Denver Center
09:21PM 40.3808 -102.9233 256° West 356 410 33,200 -1,140 Descending Denver Center
09:22PM 40.3558 -103.0508 256° West 359 413 31,700 -1,500 Descending Denver Center
09:23PM 40.3308 -103.1778 256° West 357 411 30,100 -2,040 Descending Denver Center
09:24PM 40.3031 -103.3233 256° West 353 406 27,500 -2,520 Descending Denver Center
09:25PM 40.2792 -103.4483 256° West 352 405 25,000 -2,280 Descending Denver Center
09:26PM 40.2553 -103.5669 255° West 337 388 22,900 -1,860 Descending Denver Center
09:27PM 40.2328 -103.6844 256° West 332 382 21,200 -1,740 Descending Denver Center
09:28PM 40.2111 -103.8042 257° West 319 367 19,400 -1,800 Descending Denver Center
09:29PM 40.2061 -103.9081 266° West 289 333 17,600 -1,800 Descending Denver Center
09:30PM 40.2156 -104.0203 276° West 288 331 15,700 -1,860 Descending Denver Center
09:31PM 40.2261 -104.1253 278° West 292 336 13,800 -1,560 Descending Denver Center
09:32PM 40.2350 -104.2336 276° West 282 325 12,600 -840 Descending Denver Center
09:33PM 40.2442 -104.3294 277° West 271 312 12,100 -420 Descending Denver Center
09:34PM 40.2456 -104.4225 271° West 260 299 11,800 -840 Descending Denver Center
09:35PM 40.2275 -104.5139 256° West 242 278 10,400 -1,260 Descending Denver Center
09:36PM 40.2119 -104.6014 257° West 247 284 9,200 -720 Descending Denver Center
09:37PM 40.1825 -104.6889 246° West 259 298 9,000 -600 Descending Denver Center
09:38PM 40.1153 -104.6936 183° South 242 278 8,000 -480 Descending Denver Center
09:39PM 40.0481 -104.6942 180° South 241 277 8,100 -540 Climbing Denver Center
09:40PM 39.9806 -104.6950 181° South 225 259 7,000 -960 Descending Denver Center
09:41PM 39.9350 -104.6958 181° South 166 191 6,200 -780 Descending Denver Center
09:43PM 39.8978 -104.6961 180° South 139 160 5,500 -720 Descending Denver Center
09:44PM 39.8617 -104.6732 180° South  Level Estimated
09:51PM 39.8617 -104.6732 180° South  Level Estimated
09:52PM 39.8617 -104.6732 180° South  Level Estimated
09:53PM 39.8617 -104.6732 180° South  Level Estimated
09:54PM 39.8617 -104.6732 180° South  Level Estimated